Honolulu, HI

5:48 PM HST on September 01, 2014 (GMT -1000)
Wheeler Army Air Field | Change Station
CLOSE
Current Station
Airport
Location: Wheeler AAF,
Elevation: 837 ft
Nearby Weather Stations
Active Advisory: Areal Flood Advisory Active Notice: Record Report

Elev 837 ft 21.48 °N, 158.04 °W | Updated 50 minutes ago

Overcast
Overcast
77 °F
Feels Like 77 °F
N
6
Wind Variable Wind from East

Today
High -- | Low -- °F
--% Chance of Precip.
Yesterday
High -- | Low -- °F
Precip. -- in
6:14 AM 6:47 PM
Waxing Crescent, 47% visible
Pressure 29.96 in
Visibility 10.0 miles
Clouds Overcast 2400 ft
Dew Point 72 °F
Humidity 84%
Rainfall 0.39 in
Snow Depth Not available.
UV 1 out of 12
Pollen Not available.
PM2.5 Good
Flu Activity Not available.
METAR PHHI 020258Z AUTO 08005KT 10SM OVC024 25/22 A2999 RMK AO2 SLP146 60039 T02520223 57008 $

More Conditions Fewer Conditions

Pressure 29.96 in
Visibility 10.0 miles
Clouds Overcast 2400 ft
Dew Point 72 °F
Humidity 84%
Rainfall 0.39 in
Snow Depth Not available.
UV 1 out of 12
Pollen Not available.
PM2.5 Good
Flu Activity Not available.
METAR PHHI 020258Z AUTO 08005KT 10SM OVC024 25/22 A2999 RMK AO2 SLP146 60039 T02520223 57008 $

More Conditions Fewer Conditions

10-Day Weather Forecast

Almanac

Astronomy

Sep. 01, 2014 Rise Set
Actual Time 6:14 AM HST 6:47 PM HST
Civil Twilight 5:52 AM HST 7:09 PM HST
Nautical Twilight 5:25 AM HST 7:36 PM HST
Astronomical Twilight 4:59 AM HST 8:02 PM HST
Moon 12:21 PM HST (9/1) 11:48 PM HST (9/1)
Length of Visible Light 13h 17m
Length of Day
12h 32m
Tomorrow will be 1m 10s shorter.
Waxing Crescent, 47% of the Moon is Illuminated
Today
Waxing Crescent
Sep 2
First Quarter
Sep 8
Full
Sep 15
Last Quarter
Sep 24
New

Today's Extremes

State Highs State Lows

Community

WunderPhotos

Upload Photos

1,749,557 photos uploaded!

WunderBlogs® & News

Nearby

Air Quality

  Air Quality AQ Index Pollutant
Yesterday Good
PM10
Current Good
PM2.5
Monday Good
OZONE
Tuesday Good
OZONE

Snow Depth

Station Depth Elevation
No new snow has been reported.

Earthquake Activity

City Distance Mag. Time & Date
No recent earthquake activity has been reported nearby.
Minimum magnitude displayed is 2.5.

Coastal Water Temperatures

Place Temperature
No Stations Reporting

Nearby Weather Stations